Time;durP1;ratioP1;P1;durP2;ratioP2;P2;SDS_P1;SDS_P2;PMS_P1;PMS_P2;Temp;Humidity;BMP_temperature;BMP_pressure;BME280_temperature;BME280_humidity;BME280_pressure;Samples;Min_cycle;Max_cycle;Signal;HPM_P1;HPM_P2
2022/06/08 00:00:29;;;;;;;11.60;10.50;;;19.30;99.90;;;;;;2073527;28;20422;-69
2022/06/08 00:01:30;;;;;;;10.88;9.88;;;19.30;99.90;;;;;;2072714;28;20026;-69
2022/06/08 00:02:32;;;;;;;12.10;10.93;;;19.20;99.90;;;;;;2075255;28;20036;-69
2022/06/08 00:03:40;;;;;;;12.70;11.50;;;19.30;99.90;;;;;;2075206;28;20030;-69
2022/06/08 00:04:41;;;;;;;13.07;11.77;;;19.30;99.90;;;;;;2073327;28;20025;-69
2022/06/08 00:05:42;;;;;;;12.57;11.48;;;19.30;99.90;;;;;;2074251;28;20505;-69
2022/06/08 00:06:43;;;;;;;13.70;12.48;;;19.30;99.90;;;;;;2071863;28;20390;-69
2022/06/08 00:07:43;;;;;;;11.02;9.93;;;19.30;99.90;;;;;;2072141;28;20021;-69
2022/06/08 00:08:45;;;;;;;11.15;10.05;;;19.30;99.90;;;;;;2074155;28;20032;-69
2022/06/08 00:09:45;;;;;;;15.23;12.10;;;19.30;99.90;;;;;;2072652;28;20017;-69
2022/06/08 00:10:46;;;;;;;13.73;12.52;;;19.30;99.90;;;;;;2072086;28;20022;-69
2022/06/08 00:11:46;;;;;;;12.60;11.50;;;19.20;99.90;;;;;;2075529;28;20463;-69
2022/06/08 00:12:47;;;;;;;13.82;12.50;;;19.20;99.90;;;;;;2073395;28;20429;-69
2022/06/08 00:13:48;;;;;;;15.10;13.68;;;19.20;99.90;;;;;;2072743;28;20036;-69
2022/06/08 00:14:49;;;;;;;13.55;12.20;;;19.20;99.90;;;;;;2073227;28;20060;-69
2022/06/08 00:15:49;;;;;;;13.85;12.65;;;19.20;99.90;;;;;;2072944;28;20466;-69
2022/06/08 00:16:50;;;;;;;15.85;14.35;;;19.20;99.90;;;;;;2074726;28;20508;-69
2022/06/08 00:17:51;;;;;;;15.00;13.63;;;19.20;99.90;;;;;;2072772;28;20026;-69
2022/06/08 00:18:51;;;;;;;14.82;13.48;;;19.20;99.90;;;;;;2072540;28;20022;-69
2022/06/08 00:19:53;;;;;;;15.50;14.00;;;19.20;99.90;;;;;;2074401;28;20046;-69
2022/06/08 00:20:54;;;;;;;15.10;13.63;;;19.20;99.90;;;;;;2073073;28;20109;-69
2022/06/08 00:21:55;;;;;;;14.55;13.25;;;19.20;99.90;;;;;;2074646;28;20079;-69
2022/06/08 00:22:56;;;;;;;13.05;11.80;;;19.20;99.90;;;;;;2074410;28;20101;-69
2022/06/08 00:23:57;;;;;;;17.08;15.27;;;19.20;99.90;;;;;;2073616;28;20080;-69
2022/06/08 00:24:57;;;;;;;18.13;16.55;;;19.20;99.90;;;;;;2076579;28;20030;-69
2022/06/08 00:25:58;;;;;;;20.05;17.40;;;19.10;99.90;;;;;;2075858;28;20025;-69
2022/06/08 00:27:00;;;;;;;18.85;17.08;;;19.10;99.90;;;;;;2072214;28;20053;-69
2022/06/08 00:28:01;;;;;;;20.85;18.83;;;19.10;99.90;;;;;;2075010;28;20025;-69
2022/06/08 00:29:03;;;;;;;19.80;18.00;;;19.10;99.90;;;;;;2073347;28;20026;-69
2022/06/08 00:30:06;;;;;;;18.75;17.05;;;19.10;99.90;;;;;;2075602;28;20036;-69
2022/06/08 00:31:07;;;;;;;20.20;18.25;;;19.10;99.90;;;;;;2073321;28;20049;-69
2022/06/08 00:32:08;;;;;;;23.10;20.90;;;19.10;99.90;;;;;;2075141;28;20496;-69
2022/06/08 00:33:08;;;;;;;18.25;16.65;;;19.10;99.90;;;;;;2071837;28;20057;-69
2022/06/08 00:34:09;;;;;;;20.67;18.77;;;19.00;99.90;;;;;;2072921;28;20544;-69
2022/06/08 00:35:11;;;;;;;22.73;20.33;;;19.00;99.90;;;;;;2072698;28;20037;-69
2022/06/08 00:36:11;;;;;;;20.80;18.80;;;19.00;99.90;;;;;;2072195;28;20033;-69
2022/06/08 00:37:12;;;;;;;23.80;21.60;;;19.00;99.90;;;;;;2074155;28;20109;-69
2022/06/08 00:38:12;;;;;;;22.58;20.38;;;19.00;99.90;;;;;;2072586;28;20091;-69
2022/06/08 00:39:13;;;;;;;21.85;19.58;;;19.00;99.90;;;;;;2073006;28;20041;-69
2022/06/08 00:40:18;;;;;;;17.05;15.35;;;19.00;99.90;;;;;;2072744;28;20077;-69
2022/06/08 00:41:27;;;;;;;15.52;14.05;;;19.00;99.90;;;;;;2075452;28;20049;-69
2022/06/08 00:42:28;;;;;;;14.32;13.13;;;19.00;99.90;;;;;;2073434;28;20033;-69
2022/06/08 00:43:30;;;;;;;15.35;13.98;;;18.90;99.90;;;;;;2073895;28;20075;-69
2022/06/08 00:44:44;;;;;;;19.33;17.55;;;18.90;99.90;;;;;;2073457;28;20145;-69
2022/06/08 00:45:46;;;;;;;21.55;19.52;;;18.90;99.90;;;;;;2070577;28;20022;-69
2022/06/08 00:46:48;;;;;;;18.35;16.70;;;18.90;99.90;;;;;;2073392;28;20017;-69
2022/06/08 00:48:01;;;;;;;19.88;18.08;;;18.90;99.90;;;;;;2074864;28;20076;-69
2022/06/08 00:49:14;;;;;;;17.67;16.17;;;18.90;99.90;;;;;;2072990;28;20517;-69
2022/06/08 00:50:41;;;;;;;16.27;14.63;;;18.80;99.90;;;;;;2072446;28;20076;-69
2022/06/08 00:51:42;;;;;;;14.10;12.88;;;18.80;99.90;;;;;;2074383;28;20036;-69
2022/06/08 00:52:44;;;;;;;17.85;16.25;;;18.80;99.90;;;;;;2072999;28;20025;-69
2022/06/08 00:53:59;;;;;;;16.45;15.05;;;18.70;99.90;;;;;;2075084;28;20022;-69
2022/06/08 00:55:04;;;;;;;20.23;18.42;;;18.80;99.90;;;;;;2072134;28;20026;-69
2022/06/08 00:56:10;;;;;;;19.83;18.00;;;18.70;99.90;;;;;;2072185;28;20060;-69
2022/06/08 00:57:21;;;;;;;16.90;15.25;;;18.70;99.90;;;;;;2072035;28;20034;-69
2022/06/08 00:58:26;;;;;;;15.68;14.35;;;18.70;99.90;;;;;;2075345;28;20030;-69
2022/06/08 00:59:28;;;;;;;19.27;17.50;;;18.70;99.90;;;;;;2071923;28;20097;-69
2022/06/08 01:00:37;;;;;;;19.20;17.40;;;18.60;99.90;;;;;;2073667;28;20029;-69
2022/06/08 01:01:38;;;;;;;14.20;12.93;;;18.70;99.90;;;;;;2072452;28;20505;-69
2022/06/08 01:02:39;;;;;;;19.30;17.50;;;18.60;99.90;;;;;;2075379;28;20436;-69
2022/06/08 01:03:40;;;;;;;19.67;17.88;;;18.60;99.90;;;;;;2073821;28;20018;-69
2022/06/08 01:04:41;;;;;;;14.32;13.13;;;18.70;99.90;;;;;;2071486;28;20485;-69
2022/06/08 01:05:56;;;;;;;17.23;15.68;;;18.60;99.90;;;;;;2072227;28;20010;-69
2022/06/08 01:06:59;;;;;;;16.95;15.40;;;18.60;99.90;;;;;;2071516;28;20077;-69
2022/06/08 01:08:03;;;;;;;14.55;13.27;;;18.60;99.90;;;;;;2072594;28;20421;-69
2022/06/08 01:09:04;;;;;;;16.55;15.02;;;18.60;99.90;;;;;;2071083;28;20497;-69
2022/06/08 01:10:05;;;;;;;12.63;11.40;;;18.60;99.90;;;;;;2068409;28;20567;-69
2022/06/08 01:11:18;;;;;;;13.50;11.75;;;18.60;99.90;;;;;;2071736;28;20044;-69
2022/06/08 01:12:20;;;;;;;18.38;16.63;;;18.60;99.90;;;;;;2072319;28;20061;-69
2022/06/08 01:13:23;;;;;;;19.42;17.65;;;18.50;99.90;;;;;;2074206;28;20095;-69
2022/06/08 01:14:24;;;;;;;15.18;13.98;;;18.50;99.90;;;;;;2071967;28;20497;-69
2022/06/08 01:15:27;;;;;;;18.48;16.77;;;18.50;99.90;;;;;;2072311;28;20038;-69
2022/06/08 01:16:30;;;;;;;18.67;16.85;;;18.50;99.90;;;;;;2072165;28;20025;-69
2022/06/08 01:17:30;;;;;;;18.48;16.85;;;18.50;99.90;;;;;;2072303;28;20022;-69
2022/06/08 01:18:31;;;;;;;18.02;16.50;;;18.50;99.90;;;;;;2074863;28;20036;-69
2022/06/08 01:19:35;;;;;;;18.52;16.95;;;18.50;99.90;;;;;;2075231;28;20044;-69
2022/06/08 01:20:53;;;;;;;17.55;16.08;;;18.50;99.90;;;;;;2071916;28;20495;-69
2022/06/08 01:21:55;;;;;;;15.77;14.27;;;18.50;99.90;;;;;;2077500;28;20026;-69
2022/06/08 01:22:57;;;;;;;14.85;13.52;;;18.40;99.90;;;;;;2073415;28;20048;-69
2022/06/08 01:24:03;;;;;;;17.15;15.65;;;18.40;99.90;;;;;;2073434;28;21165;-69
2022/06/08 01:25:07;;;;;;;17.25;15.63;;;18.40;99.90;;;;;;2071835;28;20103;-69
2022/06/08 01:26:21;;;;;;;14.35;13.05;;;18.40;99.90;;;;;;2071697;28;20085;-69
2022/06/08 01:27:41;;;;;;;14.57;13.38;;;18.40;99.90;;;;;;2072406;28;20644;-69
2022/06/08 01:28:52;;;;;;;19.15;17.25;;;18.30;99.90;;;;;;2073443;28;20485;-69
2022/06/08 01:29:59;;;;;;;16.48;15.13;;;18.30;99.90;;;;;;2075369;28;20396;-69
2022/06/08 01:31:08;;;;;;;16.63;15.10;;;18.30;99.90;;;;;;2072561;28;20449;-69
2022/06/08 01:32:17;;;;;;;14.40;13.20;;;18.20;99.90;;;;;;2073608;28;20346;-69
2022/06/08 01:33:36;;;;;;;16.33;14.77;;;18.30;99.90;;;;;;2072585;28;20037;-69
2022/06/08 01:34:57;;;;;;;16.55;15.10;;;18.20;99.90;;;;;;2072047;28;20256;-69
2022/06/08 01:36:06;;;;;;;14.82;13.52;;;18.20;99.90;;;;;;2074251;28;20025;-69
2022/06/08 01:37:45;;;;;;;16.73;15.10;;;18.10;99.90;;;;;;2072945;28;20018;-69
2022/06/08 01:39:05;;;;;;;16.17;14.68;;;18.10;99.90;;;;;;2074857;28;20393;-69
2022/06/08 01:40:25;;;;;;;16.38;14.98;;;18.10;99.90;;;;;;2073037;28;20030;-69
2022/06/08 01:41:41;;;;;;;12.50;11.45;;;18.00;99.90;;;;;;2075781;28;20023;-69
2022/06/08 01:42:54;;;;;;;13.98;12.57;;;18.00;99.90;;;;;;2071709;28;20061;-69
2022/06/08 01:44:15;;;;;;;11.43;10.43;;;18.00;99.90;;;;;;2073652;28;20084;-69
2022/06/08 01:45:33;;;;;;;16.02;14.73;;;18.00;99.90;;;;;;2073994;28;20014;-69
2022/06/08 01:46:43;;;;;;;17.08;15.52;;;18.00;99.90;;;;;;2072642;28;20108;-69
2022/06/08 01:48:08;;;;;;;14.18;12.98;;;17.90;99.90;;;;;;2073214;28;20092;-69
2022/06/08 01:49:27;;;;;;;14.15;12.95;;;17.90;99.90;;;;;;2074945;28;20029;-69
2022/06/08 01:50:51;;;;;;;13.90;12.60;;;17.90;99.90;;;;;;2073626;28;20113;-69
2022/06/08 01:52:11;;;;;;;16.38;14.35;;;17.90;99.90;;;;;;2070925;28;20080;-69
2022/06/08 01:54:06;;;;;;;15.25;13.93;;;17.90;99.90;;;;;;2072169;28;20022;-69
2022/06/08 01:55:20;;;;;;;15.65;13.88;;;17.80;99.90;;;;;;2076421;28;20104;-69
2022/06/08 01:56:26;;;;;;;13.32;12.23;;;17.80;99.90;;;;;;2074218;28;20184;-69
2022/06/08 01:57:56;;;;;;;15.35;13.68;;;17.70;99.90;;;;;;2072241;28;20119;-69
2022/06/08 01:59:26;;;;;;;;;;;17.70;99.90;;;;;;2057129;28;20042;-69
2022/06/08 02:00:38;;;;;;;14.57;13.18;;;17.60;99.90;;;;;;2069139;28;20389;-69
2022/06/08 02:01:51;;;;;;;14.95;13.68;;;17.60;99.90;;;;;;2075960;28;20388;-69
2022/06/08 02:03:23;;;;;;;17.73;16.13;;;17.60;99.90;;;;;;2071578;28;20034;-69
2022/06/08 02:04:51;;;;;;;17.02;15.52;;;17.60;99.90;;;;;;2073802;28;20226;-69
2022/06/08 02:06:12;;;;;;;14.80;13.25;;;17.60;99.90;;;;;;2059775;28;20067;-69
2022/06/08 02:07:27;;;;;;;13.43;12.23;;;17.60;99.90;;;;;;2071604;28;20066;-69
2022/06/08 02:08:37;;;;;;;12.07;10.98;;;17.60;99.90;;;;;;2073387;28;20022;-69
2022/06/08 02:09:44;;;;;;;12.32;11.20;;;17.50;99.90;;;;;;2073242;28;20468;-69
2022/06/08 02:10:58;;;;;;;15.85;14.45;;;17.50;99.90;;;;;;2072650;28;20033;-69
2022/06/08 02:12:04;;;;;;;16.42;14.85;;;17.60;99.90;;;;;;2072459;28;20092;-69
2022/06/08 02:13:26;;;;;;;16.58;15.10;;;17.50;99.90;;;;;;2074532;28;20088;-69
2022/06/08 02:14:45;;;;;;;13.27;12.07;;;17.50;99.90;;;;;;2071365;28;20030;-69
2022/06/08 02:15:49;;;;;;;15.70;14.20;;;17.50;99.90;;;;;;2072635;28;20026;-69
2022/06/08 02:16:55;;;;;;;14.85;13.48;;;17.50;99.90;;;;;;2071506;28;20036;-69
2022/06/08 02:17:59;;;;;;;16.17;14.68;;;17.50;99.90;;;;;;2072098;28;20022;-69
2022/06/08 02:19:30;;;;;;;12.75;11.55;;;17.50;99.90;;;;;;2073331;28;20441;-69
2022/06/08 02:20:41;;;;;;;14.80;12.57;;;17.50;99.90;;;;;;2074648;28;20026;-69
2022/06/08 02:21:48;;;;;;;15.40;13.45;;;17.40;99.90;;;;;;2072518;28;20029;-69
2022/06/08 02:23:00;;;;;;;13.52;12.32;;;17.40;99.90;;;;;;2070908;28;20018;-69
2022/06/08 02:24:08;;;;;;;14.32;12.85;;;17.40;99.90;;;;;;2074394;28;20029;-69
2022/06/08 02:25:30;;;;;;;12.00;11.05;;;17.40;99.90;;;;;;2072082;28;20022;-69
2022/06/08 02:26:38;;;;;;;15.23;13.82;;;17.40;99.90;;;;;;2071024;28;20041;-69
2022/06/08 02:28:08;;;;;;;13.38;12.02;;;17.40;99.90;;;;;;2071526;28;20068;-69
2022/06/08 02:29:20;;;;;;;16.10;14.70;;;17.30;99.90;;;;;;2069059;28;20034;-69
2022/06/08 02:30:25;;;;;;;16.25;14.75;;;17.30;99.90;;;;;;2072445;28;20022;-69
2022/06/08 02:31:37;;;;;;;15.45;13.85;;;17.30;99.90;;;;;;2073781;28;20033;-69
2022/06/08 02:34:28;;;;;;;15.57;14.15;;;17.30;99.90;;;;;;2074442;28;20030;-69
2022/06/08 02:35:40;;;;;;;13.82;12.52;;;17.20;99.90;;;;;;2070906;28;20075;-69
2022/06/08 02:36:50;;;;;;;12.32;11.23;;;17.20;99.90;;;;;;2074997;28;20466;-69
2022/06/08 02:37:54;;;;;;;14.25;12.90;;;17.20;99.90;;;;;;2073163;28;20038;-69
2022/06/08 02:39:07;;;;;;;13.65;12.23;;;17.20;99.90;;;;;;2070746;28;20026;-69
2022/06/08 02:40:20;;;;;;;15.10;13.70;;;17.20;99.90;;;;;;2071928;28;20508;-69
2022/06/08 02:41:22;;;;;;;14.18;12.85;;;17.20;99.90;;;;;;2073059;28;20025;-69
2022/06/08 02:42:27;;;;;;;16.70;15.10;;;17.20;99.90;;;;;;2074253;28;20105;-69
2022/06/08 02:43:36;;;;;;;14.43;12.98;;;17.20;99.90;;;;;;2074289;28;20444;-69
2022/06/08 02:44:39;;;;;;;14.50;13.30;;;17.20;99.90;;;;;;2072399;28;20076;-69
2022/06/08 02:45:43;;;;;;;16.30;14.80;;;17.20;99.90;;;;;;2071914;28;20561;-69
2022/06/08 02:46:48;;;;;;;16.02;14.38;;;17.20;99.90;;;;;;2071433;28;20142;-69
2022/06/08 02:47:52;;;;;;;14.88;13.57;;;17.20;99.90;;;;;;2072864;28;20018;-69
2022/06/08 02:48:52;;;;;;;15.93;14.63;;;17.20;99.90;;;;;;2075378;28;20017;-69
2022/06/08 02:49:53;;;;;;;12.68;11.55;;;17.20;99.90;;;;;;2072747;28;20079;-69
2022/06/08 02:50:56;;;;;;;15.75;14.35;;;17.20;99.90;;;;;;2077460;28;20017;-69
2022/06/08 02:52:01;;;;;;;16.05;14.40;;;17.20;99.90;;;;;;2072869;28;20568;-69
2022/06/08 02:53:28;;;;;;;13.25;12.15;;;17.20;99.90;;;;;;2075502;28;20053;-69
2022/06/08 02:54:30;;;;;;;14.15;12.80;;;17.20;99.90;;;;;;2071740;28;20050;-69
2022/06/08 02:55:43;;;;;;;11.18;10.15;;;17.20;99.90;;;;;;2074552;28;20393;-69
2022/06/08 02:57:11;;;;;;;16.27;14.85;;;17.20;99.90;;;;;;2073174;28;20034;-69
2022/06/08 02:58:19;;;;;;;14.70;13.35;;;17.10;99.90;;;;;;2074951;28;20057;-69
2022/06/08 02:59:40;;;;;;;13.70;12.50;;;17.10;99.90;;;;;;2072571;28;20029;-69
2022/06/08 03:00:49;;;;;;;15.57;14.00;;;17.10;99.90;;;;;;2075212;28;20025;-69
2022/06/08 03:02:17;;;;;;;16.02;14.48;;;17.10;99.90;;;;;;2075490;28;20030;-69
2022/06/08 03:03:28;;;;;;;14.65;13.35;;;17.10;99.90;;;;;;2073667;28;20081;-69
2022/06/08 03:04:47;;;;;;;13.43;12.23;;;17.00;99.90;;;;;;2073278;28;20022;-69
2022/06/08 03:05:50;;;;;;;15.10;13.70;;;17.00;99.90;;;;;;2073919;28;20034;-69
2022/06/08 03:07:00;;;;;;;16.10;14.48;;;17.00;99.90;;;;;;2072788;28;20549;-69
2022/06/08 03:08:04;;;;;;;;;;;17.00;99.90;;;;;;2075557;28;20474;-69
2022/06/08 03:09:07;;;;;;;16.10;14.60;;;17.00;99.90;;;;;;2075515;28;19924;-69
2022/06/08 03:10:11;;;;;;;15.32;13.88;;;17.00;99.90;;;;;;2074431;28;20018;-69
2022/06/08 03:11:11;;;;;;;17.00;15.45;;;17.00;99.90;;;;;;2074908;28;20104;-69
2022/06/08 03:12:20;;;;;;;12.88;11.68;;;17.00;99.90;;;;;;2072122;28;20474;-69
2022/06/08 03:13:31;;;;;;;15.40;13.93;;;17.00;99.90;;;;;;2073405;28;20587;-69
2022/06/08 03:14:33;;;;;;;13.88;12.70;;;16.90;99.90;;;;;;2073281;28;20036;-69
2022/06/08 03:15:34;;;;;;;12.68;11.57;;;16.90;99.90;;;;;;2075887;28;20084;-69
2022/06/08 03:16:39;;;;;;;15.48;13.95;;;16.90;99.90;;;;;;2075429;28;20060;-69
2022/06/08 03:17:40;;;;;;;14.95;13.45;;;16.90;99.90;;;;;;2076356;28;20026;-69
2022/06/08 03:18:41;;;;;;;15.23;13.82;;;16.90;99.90;;;;;;2078012;28;20659;-69
2022/06/08 03:19:42;;;;;;;13.90;12.68;;;16.90;99.90;;;;;;2072382;28;20540;-69
2022/06/08 03:20:43;;;;;;;15.52;14.00;;;16.90;99.90;;;;;;2076499;28;20067;-69
2022/06/08 03:21:44;;;;;;;15.50;14.18;;;16.80;99.90;;;;;;2074879;28;20524;-69
2022/06/08 03:22:45;;;;;;;16.15;14.65;;;16.80;99.90;;;;;;2074257;28;20460;-69
2022/06/08 03:23:46;;;;;;;13.45;12.35;;;16.90;99.90;;;;;;2072998;28;20032;-69
2022/06/08 03:24:47;;;;;;;15.13;13.88;;;16.80;99.90;;;;;;2076415;28;20026;-69
2022/06/08 03:25:49;;;;;;;14.90;13.55;;;16.80;99.90;;;;;;2075766;28;20416;-69
2022/06/08 03:26:55;;;;;;;13.38;12.27;;;16.80;99.90;;;;;;2074190;28;20561;-69
2022/06/08 03:27:55;;;;;;;13.65;12.50;;;16.80;99.90;;;;;;2073565;28;20026;-69
2022/06/08 03:28:56;;;;;;;15.27;13.68;;;16.80;99.90;;;;;;2076170;28;20108;-69
2022/06/08 03:29:57;;;;;;;12.27;11.23;;;16.80;99.90;;;;;;2073622;28;20061;-69
2022/06/08 03:30:57;;;;;;;10.80;9.93;;;16.80;99.90;;;;;;2074998;28;20029;-69
2022/06/08 03:31:58;;;;;;;15.63;14.20;;;16.70;99.90;;;;;;2074172;28;20092;-69
2022/06/08 03:32:58;;;;;;;12.07;11.13;;;16.70;99.90;;;;;;2072749;28;20040;-69
2022/06/08 03:33:59;;;;;;;10.77;9.88;;;16.70;99.90;;;;;;2074388;28;21242;-69
2022/06/08 03:34:59;;;;;;;13.32;12.13;;;16.70;99.90;;;;;;2071830;28;20034;-69
2022/06/08 03:36:00;;;;;;;13.95;12.65;;;16.70;99.90;;;;;;2072000;28;20018;-69
2022/06/08 03:37:01;;;;;;;10.75;8.95;;;16.70;99.90;;;;;;2074439;28;20025;-69
2022/06/08 03:38:02;;;;;;;14.25;12.95;;;16.70;99.90;;;;;;2074771;28;20056;-69
2022/06/08 03:39:04;;;;;;;14.98;13.65;;;16.70;99.90;;;;;;2075613;28;20026;-69
2022/06/08 03:40:05;;;;;;;13.73;12.52;;;16.70;99.90;;;;;;2075837;28;20375;-69
2022/06/08 03:41:06;;;;;;;13.23;12.02;;;16.60;99.90;;;;;;2074253;28;20030;-69
2022/06/08 03:42:07;;;;;;;13.63;12.48;;;16.60;99.90;;;;;;2073536;28;20038;-69
2022/06/08 03:43:07;;;;;;;14.35;13.15;;;16.60;99.90;;;;;;2073491;28;20049;-69
2022/06/08 03:44:08;;;;;;;14.52;13.23;;;16.60;99.90;;;;;;2071753;28;20097;-69
2022/06/08 03:45:09;;;;;;;14.25;13.00;;;16.60;99.90;;;;;;2073108;28;20374;-69
2022/06/08 03:46:11;;;;;;;12.27;11.07;;;16.60;99.90;;;;;;2073549;28;20036;-69
2022/06/08 03:47:20;;;;;;;14.02;12.70;;;16.60;99.90;;;;;;2073588;28;20041;-69
2022/06/08 03:48:21;;;;;;;14.70;13.40;;;16.60;99.90;;;;;;2073664;28;20056;-69
2022/06/08 03:49:22;;;;;;;12.75;11.55;;;16.60;99.90;;;;;;2073950;28;20021;-69
2022/06/08 03:50:29;;;;;;;12.40;11.20;;;16.60;99.90;;;;;;2074729;28;20072;-69
2022/06/08 03:51:30;;;;;;;15.90;14.38;;;16.60;99.90;;;;;;2075321;28;20421;-69
2022/06/08 03:52:37;;;;;;;14.00;12.70;;;16.60;99.90;;;;;;2071348;28;20041;-69
2022/06/08 03:53:47;;;;;;;15.35;13.90;;;16.60;99.90;;;;;;2075794;28;20018;-69
2022/06/08 03:54:52;;;;;;;15.53;13.93;;;16.60;99.90;;;;;;2073722;28;20092;-69
2022/06/08 03:55:55;;;;;;;14.93;13.60;;;16.60;99.90;;;;;;2073128;28;20087;-69
2022/06/08 03:57:00;;;;;;;16.23;14.63;;;16.70;99.90;;;;;;2072269;28;20017;-69
2022/06/08 03:58:01;;;;;;;15.75;14.35;;;16.80;99.90;;;;;;2074070;28;20025;-69
2022/06/08 03:59:03;;;;;;;15.77;14.32;;;16.80;99.90;;;;;;2074092;28;20095;-69
2022/06/08 04:00:05;;;;;;;17.73;16.02;;;16.90;99.90;;;;;;2074568;28;20026;-69
2022/06/08 04:01:06;;;;;;;12.90;11.80;;;17.00;99.90;;;;;;2072587;28;20080;-69
2022/06/08 04:02:09;;;;;;;15.10;13.70;;;17.10;99.90;;;;;;2073274;28;20559;-69
2022/06/08 04:03:11;;;;;;;14.15;12.77;;;17.20;99.90;;;;;;2072747;28;20018;-69
2022/06/08 04:04:12;;;;;;;14.82;13.40;;;17.40;99.90;;;;;;2073390;28;20022;-69
2022/06/08 04:05:14;;;;;;;14.38;12.88;;;17.50;99.90;;;;;;2075011;28;20054;-69
2022/06/08 04:06:15;;;;;;;13.65;12.45;;;17.60;99.90;;;;;;2076024;28;20602;-69
2022/06/08 04:07:16;;;;;;;13.35;12.25;;;17.80;99.90;;;;;;2074614;28;20394;-69
2022/06/08 04:08:16;;;;;;;12.32;11.30;;;17.90;99.90;;;;;;2073473;28;20026;-69
2022/06/08 04:09:17;;;;;;;12.90;11.60;;;18.10;99.90;;;;;;2076845;28;20105;-69
2022/06/08 04:10:18;;;;;;;11.63;10.48;;;18.30;99.90;;;;;;2074617;28;20382;-69
2022/06/08 04:11:19;;;;;;;12.80;11.63;;;18.50;99.90;;;;;;2073470;28;20702;-69
2022/06/08 04:12:22;;;;;;;13.20;11.98;;;18.70;99.90;;;;;;2072937;28;20041;-69
2022/06/08 04:13:23;;;;;;;10.85;9.85;;;18.90;99.90;;;;;;2074755;28;20044;-69
2022/06/08 04:14:24;;;;;;;12.73;11.43;;;19.20;99.90;;;;;;2073892;28;20029;-69
2022/06/08 04:15:43;;;;;;;11.48;10.40;;;19.40;99.90;;;;;;2071866;28;20030;-69
2022/06/08 04:16:44;;;;;;;11.15;9.68;;;19.50;99.90;;;;;;2071956;28;20623;-69
2022/06/08 04:17:44;;;;;;;10.57;9.57;;;19.80;99.90;;;;;;2074190;28;20387;-69
2022/06/08 04:18:45;;;;;;;10.88;9.77;;;20.00;99.90;;;;;;2076325;28;20111;-69
2022/06/08 04:19:49;;;;;;;10.20;9.13;;;20.30;99.90;;;;;;2071597;28;20733;-69
2022/06/08 04:20:53;;;;;;;9.52;8.60;;;20.50;99.90;;;;;;2075587;28;20033;-69
2022/06/08 04:21:53;;;;;;;11.23;9.40;;;20.80;99.90;;;;;;2074953;28;20500;-69
2022/06/08 04:22:54;;;;;;;9.48;8.65;;;21.00;99.90;;;;;;2073007;28;20366;-69
2022/06/08 04:23:55;;;;;;;9.45;8.60;;;21.20;99.90;;;;;;2075022;28;20025;-69
2022/06/08 04:24:56;;;;;;;9.63;8.20;;;21.30;99.90;;;;;;2072844;28;20053;-69
2022/06/08 04:25:58;;;;;;;8.38;7.68;;;21.40;99.90;;;;;;2072655;28;20030;-69
2022/06/08 04:26:59;;;;;;;7.50;6.80;;;21.50;99.90;;;;;;2073157;28;20029;-69
2022/06/08 04:27:59;;;;;;;9.02;7.32;;;21.50;99.90;;;;;;2072929;28;20036;-69
2022/06/08 04:29:00;;;;;;;7.07;6.30;;;21.40;99.90;;;;;;2071788;28;20397;-69
2022/06/08 04:30:00;;;;;;;7.55;6.55;;;21.40;99.90;;;;;;2071054;28;20061;-69
2022/06/08 04:31:02;;;;;;;6.97;6.30;;;21.20;99.90;;;;;;2074799;28;20477;-69
2022/06/08 04:32:04;;;;;;;6.75;6.20;;;21.10;99.90;;;;;;2073081;28;20061;-69
2022/06/08 04:33:05;;;;;;;6.63;6.00;;;21.00;99.90;;;;;;2074218;28;20057;-69
2022/06/08 04:34:09;;;;;;;6.30;5.70;;;20.90;99.90;;;;;;2074292;28;20065;-69
2022/06/08 04:35:09;;;;;;;6.35;5.85;;;20.80;99.90;;;;;;2072857;28;20711;-69
2022/06/08 04:36:11;;;;;;;5.15;4.75;;;20.70;99.90;;;;;;2073784;28;20029;-69
2022/06/08 04:37:12;;;;;;;6.85;5.72;;;20.70;99.90;;;;;;2074521;28;20069;-69
2022/06/08 04:38:13;;;;;;;6.00;5.43;;;20.60;99.90;;;;;;2076540;28;20035;-69
2022/06/08 04:39:15;;;;;;;5.70;5.15;;;20.60;99.90;;;;;;2075275;28;20061;-69
2022/06/08 04:40:16;;;;;;;4.38;4.00;;;20.60;99.90;;;;;;2074371;28;20026;-69
2022/06/08 04:41:18;;;;;;;4.65;4.22;;;20.60;99.90;;;;;;2075222;28;20032;-69
2022/06/08 04:42:19;;;;;;;4.88;4.47;;;20.60;99.90;;;;;;2072153;28;20101;-69
2022/06/08 04:43:19;;;;;;;4.82;4.43;;;20.60;99.90;;;;;;2073380;28;20036;-69
2022/06/08 04:44:21;;;;;;;5.25;4.10;;;20.60;99.90;;;;;;2071819;28;20482;-69
2022/06/08 04:45:21;;;;;;;3.80;3.50;;;20.60;99.90;;;;;;2071227;28;20104;-69
2022/06/08 04:46:23;;;;;;;5.80;3.72;;;20.60;99.90;;;;;;2073685;28;20042;-69
2022/06/08 04:47:24;;;;;;;5.50;4.45;;;20.60;99.90;;;;;;2072606;28;20088;-69
2022/06/08 04:48:26;;;;;;;4.15;3.17;;;20.60;99.90;;;;;;2073951;28;20061;-69
2022/06/08 04:49:27;;;;;;;3.40;3.08;;;20.60;99.90;;;;;;2073390;28;20026;-69
2022/06/08 04:50:28;;;;;;;4.18;3.60;;;20.60;99.90;;;;;;2071853;28;20030;-69
2022/06/08 04:51:29;;;;;;;3.40;3.10;;;20.50;99.90;;;;;;2073359;28;20021;-69
2022/06/08 04:52:29;;;;;;;3.28;3.03;;;20.50;99.90;;;;;;2075593;28;20081;-69
2022/06/08 04:53:30;;;;;;;4.13;2.75;;;20.50;99.90;;;;;;2074505;28;20037;-69
2022/06/08 04:54:31;;;;;;;2.50;2.30;;;20.50;99.90;;;;;;2072789;28;20045;-69
2022/06/08 04:55:32;;;;;;;4.32;3.22;;;20.50;99.90;;;;;;2070907;28;20080;-69
2022/06/08 04:56:33;;;;;;;3.28;2.80;;;20.50;99.90;;;;;;2076337;28;20021;-69
2022/06/08 04:57:37;;;;;;;8.00;3.40;;;20.50;99.90;;;;;;2071143;28;20103;-69
2022/06/08 04:58:37;;;;;;;3.22;2.90;;;20.50;99.90;;;;;;2071853;28;20429;-69
2022/06/08 04:59:38;;;;;;;2.85;2.60;;;20.50;99.90;;;;;;2072041;28;20136;-69
2022/06/08 05:00:39;;;;;;;3.10;2.83;;;20.50;99.90;;;;;;2076706;28;20030;-69
2022/06/08 05:01:39;;;;;;;2.65;2.45;;;20.50;99.90;;;;;;2072287;28;21575;-69
2022/06/08 05:02:43;;;;;;;3.00;2.80;;;20.50;99.90;;;;;;2074955;28;20018;-69
2022/06/08 05:03:44;;;;;;;2.58;2.38;;;20.50;99.90;;;;;;2071893;28;20355;-69
2022/06/08 05:04:45;;;;;;;3.30;2.63;;;20.50;99.90;;;;;;2076703;28;20098;-69
2022/06/08 05:05:45;;;;;;;4.32;2.40;;;20.50;99.90;;;;;;2070516;28;20025;-69
2022/06/08 05:06:47;;;;;;;3.42;2.35;;;20.50;99.90;;;;;;2074471;28;20021;-69
2022/06/08 05:07:49;;;;;;;2.92;2.28;;;20.50;99.90;;;;;;2072912;28;20029;-69
2022/06/08 05:08:49;;;;;;;2.13;2.00;;;20.50;99.90;;;;;;2072711;28;20045;-69
2022/06/08 05:09:50;;;;;;;4.10;2.33;;;20.50;99.90;;;;;;2074426;28;20025;-69
2022/06/08 05:10:52;;;;;;;2.67;2.08;;;20.50;99.90;;;;;;2071868;28;20057;-69
2022/06/08 05:11:52;;;;;;;3.42;2.20;;;20.50;99.90;;;;;;2072197;28;20205;-69
2022/06/08 05:12:53;;;;;;;3.28;2.25;;;20.60;99.90;;;;;;2077606;28;20160;-69
2022/06/08 05:13:54;;;;;;;3.70;2.25;;;20.60;99.90;;;;;;2078060;28;20250;-69
2022/06/08 05:14:55;;;;;;;2.95;2.22;;;20.60;99.90;;;;;;2071666;28;20101;-69
2022/06/08 05:15:55;;;;;;;2.38;2.10;;;20.60;99.90;;;;;;2076704;28;20025;-69
2022/06/08 05:16:56;;;;;;;3.33;2.30;;;20.60;99.90;;;;;;2074121;28;20108;-69
2022/06/08 05:17:58;;;;;;;2.35;2.05;;;20.60;99.90;;;;;;2073600;28;20100;-69
2022/06/08 05:18:58;;;;;;;4.72;2.53;;;20.70;99.90;;;;;;2073356;28;20381;-69
2022/06/08 05:19:59;;;;;;;2.65;2.17;;;20.70;99.90;;;;;;2072223;28;20053;-69
2022/06/08 05:21:00;;;;;;;3.30;2.00;;;20.70;99.90;;;;;;2073856;28;20424;-69
2022/06/08 05:22:00;;;;;;;2.47;2.00;;;20.80;99.90;;;;;;2072992;28;20454;-69
2022/06/08 05:23:02;;;;;;;3.20;2.05;;;20.80;99.90;;;;;;2072471;28;20029;-69
2022/06/08 05:24:04;;;;;;;3.83;2.05;;;20.80;99.90;;;;;;2074019;28;20061;-69
2022/06/08 05:25:06;;;;;;;2.85;2.00;;;20.80;99.90;;;;;;2072226;28;20022;-69
2022/06/08 05:26:08;;;;;;;2.75;2.10;;;20.90;99.90;;;;;;2070773;28;20029;-69
2022/06/08 05:27:09;;;;;;;2.58;1.90;;;20.90;99.90;;;;;;2071868;28;20454;-69
2022/06/08 05:28:11;;;;;;;3.00;2.05;;;21.00;99.90;;;;;;2075277;28;20049;-69
2022/06/08 05:29:12;;;;;;;4.13;2.67;;;21.10;99.90;;;;;;2072509;28;20030;-69
2022/06/08 05:30:13;;;;;;;5.20;2.03;;;21.10;99.90;;;;;;2073287;28;20029;-69
2022/06/08 05:31:14;;;;;;;5.40;2.15;;;21.20;99.90;;;;;;2073274;28;20033;-69
2022/06/08 05:32:14;;;;;;;3.42;2.20;;;21.30;99.90;;;;;;2073329;28;20034;-69
2022/06/08 05:33:15;;;;;;;3.70;2.20;;;21.30;99.90;;;;;;2075731;28;20041;-69
2022/06/08 05:34:15;;;;;;;3.15;2.20;;;21.40;99.90;;;;;;2072106;28;20060;-69
2022/06/08 05:35:16;;;;;;;4.93;1.85;;;21.40;99.90;;;;;;2072072;28;20034;-69
2022/06/08 05:36:17;;;;;;;2.50;2.30;;;21.50;99.90;;;;;;2072899;28;20038;-69